Time;durP1;ratioP1;P1;durP2;ratioP2;P2;SDS_P1;SDS_P2;PMS_P1;PMS_P2;Temp;Humidity;BMP_temperature;BMP_pressure;BME280_temperature;BME280_humidity;BME280_pressure;Samples;Min_cycle;Max_cycle;Signal;HPM_P1;HPM_P2
2024/02/28 00:02:21;;;;;;;21.63;18.83;;;9.50;99.90;;;;;;5067000;28;20185;-72
2024/02/28 00:04:47;;;;;;;22.97;19.37;;;9.50;99.90;;;;;;5066195;28;20214;-72
2024/02/28 00:07:13;;;;;;;23.00;18.93;;;9.30;99.90;;;;;;5066347;28;20184;-72
2024/02/28 00:09:38;;;;;;;25.80;19.33;;;9.30;99.90;;;;;;5066570;28;20171;-72
2024/02/28 00:12:04;;;;;;;22.83;17.70;;;9.50;99.90;;;;;;5064916;28;20564;-72
2024/02/28 00:14:30;;;;;;;22.10;18.33;;;9.80;99.90;;;;;;5065490;28;20194;-73
2024/02/28 00:16:55;;;;;;;21.97;18.23;;;9.80;99.90;;;;;;5066154;28;20176;-72
2024/02/28 00:19:22;;;;;;;25.50;19.40;;;9.50;99.90;;;;;;5065578;28;20421;-73
2024/02/28 00:21:48;;;;;;;25.63;19.63;;;9.60;99.90;;;;;;5065847;28;20559;-72
2024/02/28 00:24:13;;;;;;;23.77;18.00;;;9.60;99.90;;;;;;5065646;28;20427;-72
2024/02/28 00:26:43;;;;;;;24.23;20.17;;;9.60;99.90;;;;;;5065825;28;20178;-72
2024/02/28 00:29:09;;;;;;;22.50;19.73;;;9.90;99.90;;;;;;5065804;28;20179;-72
2024/02/28 00:31:35;;;;;;;23.03;18.07;;;9.90;99.90;;;;;;5064927;28;20455;-72
2024/02/28 00:34:01;;;;;;;22.37;17.97;;;9.90;99.90;;;;;;5065239;28;20456;-72
2024/02/28 00:36:26;;;;;;;19.97;17.63;;;9.70;99.90;;;;;;5065853;28;20898;-72
2024/02/28 00:38:52;;;;;;;20.80;18.40;;;9.80;99.90;;;;;;5065279;28;20235;-72
2024/02/28 00:41:18;;;;;;;20.07;16.60;;;10.00;99.90;;;;;;5047483;28;20795;-71
2024/02/28 00:43:44;;;;;;;26.30;18.80;;;9.80;99.90;;;;;;5065253;28;21210;-74
2024/02/28 00:46:12;;;;;;;21.20;18.27;;;9.80;99.90;;;;;;5065250;28;20408;-73
2024/02/28 00:48:40;;;;;;;27.07;19.40;;;10.00;99.90;;;;;;5065161;28;20202;-73
2024/02/28 00:51:08;;;;;;;24.97;19.03;;;10.10;99.90;;;;;;5065022;28;20500;-71
2024/02/28 00:53:34;;;;;;;23.50;18.57;;;10.10;99.90;;;;;;5065241;28;20709;-72
2024/02/28 00:55:59;;;;;;;21.97;18.40;;;9.80;99.90;;;;;;5065095;28;20506;-72
2024/02/28 00:58:27;;;;;;;24.97;19.10;;;9.60;99.90;;;;;;5065362;28;20751;-72
2024/02/28 01:00:53;;;;;;;22.93;17.80;;;9.50;99.90;;;;;;5065506;28;20475;-73
2024/02/28 01:03:19;;;;;;;24.53;19.30;;;9.50;99.90;;;;;;5064804;28;20447;-72
2024/02/28 01:05:44;;;;;;;22.60;19.43;;;9.40;99.90;;;;;;5064726;28;20782;-72
2024/02/28 01:08:10;;;;;;;21.13;17.90;;;9.50;99.90;;;;;;5065341;28;20663;-72
2024/02/28 01:10:36;;;;;;;24.57;20.17;;;9.50;99.90;;;;;;5064673;28;20174;-73
2024/02/28 01:13:02;;;;;;;22.37;18.87;;;9.40;99.90;;;;;;5064782;28;20183;-72
2024/02/28 01:15:28;;;;;;;22.70;19.40;;;9.40;99.90;;;;;;5064435;28;20467;-71
2024/02/28 01:17:53;;;;;;;24.97;19.80;;;9.50;99.90;;;;;;5064992;28;20459;-72
2024/02/28 01:20:19;;;;;;;23.03;18.90;;;9.60;99.90;;;;;;5064818;28;20307;-72
2024/02/28 01:22:45;;;;;;;23.03;18.83;;;9.60;99.90;;;;;;5064931;28;20560;-73
2024/02/28 01:25:10;;;;;;;23.00;18.53;;;9.50;99.90;;;;;;5064404;28;20217;-72
2024/02/28 01:27:36;;;;;;;24.30;20.50;;;9.50;99.90;;;;;;5064672;28;20612;-73
2024/02/28 01:30:03;;;;;;;26.37;19.77;;;9.40;99.90;;;;;;5064593;28;20182;-72
2024/02/28 01:32:29;;;;;;;23.53;19.40;;;9.40;99.90;;;;;;5064455;28;20229;-73
2024/02/28 01:34:55;;;;;;;29.13;21.57;;;9.30;99.90;;;;;;5064588;28;20441;-72
2024/02/28 01:37:21;;;;;;;30.43;21.53;;;9.30;99.90;;;;;;5064630;28;20480;-72
2024/02/28 01:39:46;;;;;;;27.50;20.37;;;9.30;99.90;;;;;;5064536;28;20254;-73
2024/02/28 01:42:13;;;;;;;32.00;22.30;;;9.40;99.90;;;;;;5064181;28;20184;-73
2024/02/28 01:44:45;;;;;;;27.80;21.73;;;9.70;99.90;;;;;;5064093;28;20576;-73
2024/02/28 01:47:12;;;;;;;26.10;20.30;;;9.80;99.90;;;;;;5046082;28;20428;-73
2024/02/28 01:49:38;;;;;;;27.40;20.40;;;9.70;99.90;;;;;;5064228;28;20936;-73
2024/02/28 01:52:04;;;;;;;25.50;20.50;;;9.60;99.90;;;;;;5046026;28;20453;-72
2024/02/28 01:54:32;;;;;;;23.93;18.83;;;9.30;99.90;;;;;;5046172;28;20927;-73
2024/02/28 01:56:58;;;;;;;23.77;20.80;;;9.20;99.90;;;;;;5064666;28;20413;-73
2024/02/28 01:59:26;;;;;;;25.00;20.10;;;9.20;99.90;;;;;;5063507;28;21215;-73
2024/02/28 02:01:51;;;;;;;26.37;20.30;;;9.30;99.90;;;;;;5063584;28;20217;-72
2024/02/28 02:04:17;;;;;;;26.07;20.57;;;9.30;99.90;;;;;;5063745;28;20501;-72
2024/02/28 02:06:45;;;;;;;31.20;22.10;;;9.30;99.90;;;;;;5063507;28;20186;-71
2024/02/28 02:09:11;;;;;;;28.07;19.80;;;9.30;99.90;;;;;;5063840;28;20186;-72
2024/02/28 02:11:38;;;;;;;25.47;20.53;;;9.30;99.90;;;;;;5064162;28;20467;-71
2024/02/28 02:14:04;;;;;;;29.27;20.90;;;9.00;99.90;;;;;;5063220;28;20441;-71
2024/02/28 02:16:29;;;;;;;25.43;20.77;;;8.80;99.90;;;;;;5063569;28;20412;-72
2024/02/28 02:18:55;;;;;;;27.80;21.20;;;8.90;99.90;;;;;;5063960;28;20172;-72
2024/02/28 02:21:30;;;;;;;25.83;20.87;;;9.20;99.90;;;;;;5063978;28;20424;-72
2024/02/28 02:23:55;;;;;;;25.60;21.40;;;9.10;99.90;;;;;;5063354;28;20503;-72
2024/02/28 02:26:21;;;;;;;29.60;21.13;;;9.00;99.90;;;;;;5063638;28;20851;-72
2024/02/28 02:28:47;;;;;;;26.03;21.50;;;9.00;99.90;;;;;;5045485;28;20182;-72
2024/02/28 02:31:13;;;;;;;29.10;22.33;;;9.10;99.90;;;;;;5063783;28;20209;-72
2024/02/28 02:33:39;;;;;;;27.00;20.30;;;9.20;99.90;;;;;;5063371;28;20191;-71
2024/02/28 02:36:04;;;;;;;25.50;20.13;;;9.10;99.90;;;;;;5062955;28;20459;-71
2024/02/28 02:38:30;;;;;;;25.93;19.93;;;9.10;99.90;;;;;;5063476;28;20707;-72
2024/02/28 02:40:55;;;;;;;25.57;20.00;;;9.10;99.90;;;;;;5063334;28;20278;-72
2024/02/28 02:43:21;;;;;;;25.13;20.23;;;9.20;99.90;;;;;;5063292;28;20187;-71
2024/02/28 02:45:47;;;;;;;25.97;20.33;;;9.10;99.90;;;;;;5063216;28;20195;-72
2024/02/28 02:48:12;;;;;;;24.30;19.87;;;9.10;99.90;;;;;;5063718;28;20209;-73
2024/02/28 02:50:38;;;;;;;24.27;19.03;;;9.30;99.90;;;;;;5063350;28;20550;-73
2024/02/28 02:53:04;;;;;;;24.83;19.60;;;9.20;99.90;;;;;;5063168;28;20241;-72
2024/02/28 02:55:30;;;;;;;23.17;19.67;;;9.10;99.90;;;;;;5063044;28;20618;-73
2024/02/28 02:57:56;;;;;;;24.67;20.50;;;9.20;99.90;;;;;;5063145;28;20416;-72
2024/02/28 03:00:22;;;;;;;27.30;20.93;;;9.20;99.90;;;;;;5063247;28;20456;-72
2024/02/28 03:02:47;;;;;;;24.87;18.77;;;9.10;99.90;;;;;;5062970;28;20182;-73
2024/02/28 03:05:13;;;;;;;27.03;20.43;;;9.00;99.90;;;;;;5045002;28;20448;-72
2024/02/28 03:07:39;;;;;;;26.20;21.00;;;9.20;99.90;;;;;;5063339;28;20236;-73
2024/02/28 03:10:05;;;;;;;23.40;19.30;;;9.20;99.90;;;;;;5063095;28;20295;-72
2024/02/28 03:12:31;;;;;;;27.00;21.93;;;9.30;99.90;;;;;;5062669;28;20242;-73
2024/02/28 03:14:56;;;;;;;27.43;21.47;;;9.30;99.90;;;;;;5063150;28;20476;-72
2024/02/28 03:17:22;;;;;;;27.87;22.27;;;9.40;99.90;;;;;;5063352;28;20185;-72
2024/02/28 03:19:48;;;;;;;23.70;19.57;;;9.50;99.90;;;;;;5063339;28;20654;-72
2024/02/28 03:22:13;;;;;;;22.40;18.80;;;9.30;99.90;;;;;;5044948;28;20185;-72
2024/02/28 03:24:39;;;;;;;20.33;17.97;;;9.20;99.90;;;;;;5062367;28;20235;-73
2024/02/28 03:27:05;;;;;;;24.93;19.33;;;9.00;99.90;;;;;;5062888;28;20190;-72
2024/02/28 03:29:30;;;;;;;26.13;19.37;;;9.00;99.90;;;;;;5062932;28;20361;-72
2024/02/28 03:31:58;;;;;;;25.27;19.90;;;9.00;99.90;;;;;;5062846;28;20205;-72
2024/02/28 03:34:23;;;;;;;23.07;19.43;;;9.00;99.90;;;;;;5062952;28;20211;-73
2024/02/28 03:36:49;;;;;;;24.50;19.40;;;8.90;99.90;;;;;;5063293;28;20433;-72
2024/02/28 03:39:14;;;;;;;27.00;19.80;;;8.90;99.90;;;;;;5063222;28;20202;-73
2024/02/28 03:41:40;;;;;;;25.53;19.73;;;8.80;99.90;;;;;;5064035;28;20563;-72
2024/02/28 03:44:05;;;;;;;25.40;20.23;;;8.80;99.90;;;;;;5063928;28;20206;-73
2024/02/28 03:46:31;;;;;;;22.97;19.77;;;8.80;99.90;;;;;;5063798;28;20187;-72
2024/02/28 03:48:57;;;;;;;23.37;20.10;;;9.00;99.90;;;;;;5067665;28;20229;-72
2024/02/28 03:51:22;;;;;;;21.50;17.93;;;8.90;99.90;;;;;;5066582;28;20226;-72
2024/02/28 03:53:48;;;;;;;24.47;20.33;;;9.00;99.90;;;;;;5066540;28;20206;-72
2024/02/28 03:56:30;;;;;;;29.30;20.97;;;8.80;99.90;;;;;;5066201;28;20178;-72
2024/02/28 03:58:56;;;;;;;23.50;19.63;;;8.90;99.90;;;;;;5048349;28;20178;-72
2024/02/28 04:01:21;;;;;;;25.83;19.83;;;8.80;99.90;;;;;;5066170;28;20479;-72
2024/02/28 04:03:47;;;;;;;23.90;19.10;;;8.80;99.90;;;;;;5066037;28;20196;-71
2024/02/28 04:06:12;;;;;;;26.37;21.20;;;8.70;99.90;;;;;;5066082;28;20660;-72
2024/02/28 04:08:40;;;;;;;24.70;19.33;;;8.70;99.90;;;;;;5066219;28;20179;-72
2024/02/28 04:11:05;;;;;;;24.20;19.57;;;8.70;99.90;;;;;;5065711;28;20305;-72
2024/02/28 04:13:31;;;;;;;26.00;20.60;;;8.70;99.90;;;;;;5065885;28;20506;-71
2024/02/28 04:15:56;;;;;;;22.87;19.43;;;8.60;99.90;;;;;;5065524;28;20278;-72
2024/02/28 04:18:25;;;;;;;26.17;19.40;;;8.40;99.90;;;;;;5065874;28;20186;-72
2024/02/28 04:20:51;;;;;;;23.40;19.93;;;8.50;99.90;;;;;;5065832;28;20236;-72
2024/02/28 04:23:17;;;;;;;26.73;19.53;;;8.70;99.90;;;;;;5065406;28;20826;-72
2024/02/28 04:25:42;;;;;;;24.60;19.53;;;8.70;99.90;;;;;;5065853;28;20580;-72
2024/02/28 04:28:08;;;;;;;24.90;19.90;;;8.70;99.90;;;;;;5047140;28;20414;-72
2024/02/28 04:30:34;;;;;;;23.87;18.80;;;8.80;99.90;;;;;;5065791;28;20552;-72
2024/02/28 04:33:00;;;;;;;24.13;19.90;;;8.80;99.90;;;;;;5065304;28;20455;-71
2024/02/28 04:35:25;;;;;;;29.10;20.00;;;8.70;99.90;;;;;;5065411;28;20659;-71
2024/02/28 04:37:51;;;;;;;23.00;19.77;;;8.80;99.90;;;;;;5065599;28;20733;-72
2024/02/28 04:40:16;;;;;;;25.23;19.23;;;8.70;99.90;;;;;;5047327;28;20528;-72
2024/02/28 04:42:45;;;;;;;21.63;17.37;;;8.60;99.90;;;;;;5065155;28;21419;-70
2024/02/28 04:45:11;;;;;;;27.87;21.90;;;8.50;99.90;;;;;;5064904;28;20198;-71
2024/02/28 04:47:37;;;;;;;27.40;20.40;;;8.30;99.90;;;;;;5065270;28;20418;-71
2024/02/28 04:50:07;;;;;;;23.47;18.33;;;8.50;99.90;;;;;;5065053;28;20181;-72
2024/02/28 04:52:33;;;;;;;25.60;19.80;;;8.50;99.90;;;;;;5046875;28;20459;-71
2024/02/28 04:54:59;;;;;;;23.67;19.37;;;8.40;99.90;;;;;;5064857;28;20606;-72
2024/02/28 04:57:25;;;;;;;22.03;18.63;;;8.30;99.90;;;;;;5064781;28;20419;-70
2024/02/28 04:59:51;;;;;;;21.03;18.73;;;8.30;99.90;;;;;;5065152;28;20930;-72
2024/02/28 05:02:16;;;;;;;22.53;19.83;;;8.40;99.90;;;;;;5064815;28;20230;-71
2024/02/28 05:04:42;;;;;;;25.40;21.00;;;8.30;99.90;;;;;;5064599;28;20209;-72
2024/02/28 05:07:08;;;;;;;23.07;19.63;;;8.40;99.90;;;;;;5064758;28;20508;-71
2024/02/28 05:09:35;;;;;;;24.17;19.37;;;8.30;99.90;;;;;;5065087;28;20463;-72
2024/02/28 05:12:01;;;;;;;24.77;19.30;;;8.20;99.90;;;;;;5064760;28;20586;-72
2024/02/28 05:14:26;;;;;;;24.23;18.90;;;8.30;99.90;;;;;;5064544;28;20454;-72
2024/02/28 05:16:52;;;;;;;22.97;19.20;;;8.10;99.90;;;;;;5064435;28;20420;-72
2024/02/28 05:19:18;;;;;;;20.83;18.40;;;8.00;99.90;;;;;;5065209;28;20184;-71
2024/02/28 05:21:44;;;;;;;25.20;19.87;;;8.00;99.90;;;;;;5064394;28;20220;-72
2024/02/28 05:24:10;;;;;;;25.53;19.90;;;8.00;99.90;;;;;;5046514;28;20444;-71
2024/02/28 05:26:36;;;;;;;24.30;18.67;;;8.10;99.90;;;;;;5064149;28;20473;-72
2024/02/28 05:29:03;;;;;;;23.23;19.80;;;8.30;99.90;;;;;;5064934;28;20234;-72
2024/02/28 05:31:29;;;;;;;27.50;22.33;;;8.50;99.90;;;;;;5064094;28;20462;-72
2024/02/28 05:33:57;;;;;;;28.10;23.03;;;8.60;99.90;;;;;;5064604;28;20466;-72
2024/02/28 05:36:27;;;;;;;43.83;35.80;;;8.70;99.90;;;;;;5064330;28;20412;-72
2024/02/28 05:38:54;;;;;;;75.10;50.67;;;8.60;99.90;;;;;;5064173;28;20418;-72
2024/02/28 05:41:20;;;;;;;165.37;108.67;;;8.30;99.90;;;;;;5064464;28;20972;-71
2024/02/28 05:43:46;;;;;;;445.83;256.17;;;8.20;99.90;;;;;;5063973;28;20416;-73
2024/02/28 05:46:12;;;;;;;105.20;77.50;;;8.30;99.90;;;;;;5064314;28;20193;-72
2024/02/28 05:48:38;;;;;;;50.83;39.67;;;8.40;99.90;;;;;;5063903;28;20510;-72
2024/02/28 05:51:03;;;;;;;28.27;24.20;;;8.50;99.90;;;;;;5064067;28;20181;-72
2024/02/28 05:53:35;;;;;;;26.13;21.43;;;8.40;99.90;;;;;;5063926;28;20219;-72
2024/02/28 05:56:13;;;;;;;25.20;22.67;;;8.40;99.90;;;;;;5063989;28;20417;-72
2024/02/28 05:58:48;;;;;;;24.63;20.60;;;8.50;99.90;;;;;;5063553;28;20464;-72
2024/02/28 06:01:18;;;;;;;24.70;19.67;;;8.60;99.90;;;;;;5063682;28;20420;-72
2024/02/28 06:03:47;;;;;;;25.43;20.80;;;8.40;99.90;;;;;;5045637;28;20438;-72
2024/02/28 06:06:13;;;;;;;22.80;19.50;;;8.20;99.90;;;;;;5063838;28;20457;-71
2024/02/28 06:08:40;;;;;;;23.67;21.27;;;8.10;99.90;;;;;;5062983;28;20443;-72
2024/02/28 06:11:06;;;;;;;28.20;21.67;;;8.10;99.90;;;;;;5063069;28;20192;-73
2024/02/28 06:13:31;;;;;;;21.93;19.47;;;8.10;99.90;;;;;;5063535;28;20425;-72
2024/02/28 06:15:57;;;;;;;24.23;20.30;;;8.30;99.90;;;;;;5063017;28;20443;-73
2024/02/28 06:18:26;;;;;;;23.80;19.83;;;8.30;99.90;;;;;;5063689;28;20189;-72
2024/02/28 06:20:53;;;;;;;27.00;20.83;;;8.10;99.90;;;;;;5063866;28;20184;-72
2024/02/28 06:23:19;;;;;;;24.70;20.60;;;8.20;99.90;;;;;;5063488;28;20434;-72
2024/02/28 06:25:44;;;;;;;24.47;19.60;;;8.00;99.90;;;;;;5063493;28;20424;-71
2024/02/28 06:28:10;;;;;;;25.03;20.13;;;8.00;99.90;;;;;;5063131;28;20677;-72
2024/02/28 06:30:35;;;;;;;28.20;21.13;;;8.00;99.90;;;;;;5063408;28;20186;-72
2024/02/28 06:33:01;;;;;;;25.20;21.43;;;8.30;99.90;;;;;;5062937;28;20285;-72
2024/02/28 06:35:27;;;;;;;23.43;19.83;;;8.30;99.90;;;;;;5063044;28;20283;-72
2024/02/28 06:37:53;;;;;;;24.43;19.53;;;8.30;99.90;;;;;;5063508;28;20190;-72
2024/02/28 06:40:18;;;;;;;25.30;20.80;;;8.20;99.90;;;;;;5063287;28;20514;-73
2024/02/28 06:42:44;;;;;;;25.43;20.40;;;8.40;99.90;;;;;;5063149;28;20226;-72
2024/02/28 06:45:10;;;;;;;31.43;24.90;;;8.30;99.90;;;;;;5062800;28;20217;-72
2024/02/28 06:47:36;;;;;;;28.70;23.53;;;8.30;99.90;;;;;;5063013;28;20184;-72
2024/02/28 06:50:03;;;;;;;24.23;18.20;;;8.40;99.90;;;;;;5063611;28;20196;-72
2024/02/28 06:52:30;;;;;;;24.20;20.33;;;8.30;99.90;;;;;;5062883;28;20830;-72
2024/02/28 06:54:55;;;;;;;24.33;19.50;;;8.20;99.90;;;;;;5063319;28;20436;-72
2024/02/28 06:57:21;;;;;;;29.17;23.40;;;8.40;99.90;;;;;;5063124;28;20722;-72
2024/02/28 06:59:47;;;;;;;23.03;19.37;;;8.60;99.90;;;;;;5063164;28;20670;-73
2024/02/28 07:02:12;;;;;;;23.27;19.33;;;8.70;99.90;;;;;;5062868;28;20189;-73
2024/02/28 07:04:38;;;;;;;27.03;20.43;;;8.90;99.90;;;;;;5064484;28;20686;-72
2024/02/28 07:07:04;;;;;;;28.17;22.73;;;9.00;99.90;;;;;;5062945;28;20466;-73
2024/02/28 07:09:32;;;;;;;24.53;20.23;;;9.00;99.90;;;;;;5063604;28;20421;-73
2024/02/28 07:11:58;;;;;;;25.57;19.20;;;9.10;99.90;;;;;;5063008;28;21026;-72
2024/02/28 07:14:24;;;;;;;31.27;24.23;;;9.20;99.90;;;;;;5063154;28;20483;-73
2024/02/28 07:16:51;;;;;;;26.83;21.43;;;9.20;99.90;;;;;;5063268;28;20445;-72
2024/02/28 07:19:17;;;;;;;26.03;21.57;;;9.20;99.90;;;;;;5064187;28;20235;-73
2024/02/28 07:21:43;;;;;;;22.70;19.07;;;9.10;99.90;;;;;;5066316;28;20442;-74
2024/02/28 07:24:09;;;;;;;27.70;22.00;;;9.10;99.90;;;;;;5068334;28;20440;-72
2024/02/28 07:26:34;;;;;;;25.63;20.57;;;9.20;99.90;;;;;;5069128;28;20182;-72
2024/02/28 07:29:00;;;;;;;23.87;19.87;;;9.30;99.90;;;;;;5068347;28;20192;-72
2024/02/28 07:31:26;;;;;;;23.97;20.70;;;9.10;99.90;;;;;;5067330;28;20286;-74
2024/02/28 07:33:51;;;;;;;22.80;18.60;;;9.20;99.90;;;;;;5048691;28;20226;-72
2024/02/28 07:36:17;;;;;;;27.73;21.10;;;9.10;99.90;;;;;;5066617;28;20463;-73
2024/02/28 07:38:42;;;;;;;24.80;21.60;;;9.00;99.90;;;;;;5066674;28;20196;-72
2024/02/28 07:41:08;;;;;;;24.87;20.57;;;8.80;99.90;;;;;;5066469;28;20179;-72
2024/02/28 07:43:37;;;;;;;26.30;21.83;;;8.70;99.90;;;;;;5065838;28;20437;-71
2024/02/28 07:46:07;;;;;;;24.90;20.70;;;8.90;99.90;;;;;;5066447;28;20199;-71
2024/02/28 07:48:33;;;;;;;27.87;20.73;;;9.00;99.90;;;;;;5066501;28;20417;-70
2024/02/28 07:50:58;;;;;;;29.83;22.33;;;9.00;99.90;;;;;;5065785;28;20837;-71
2024/02/28 07:53:24;;;;;;;29.10;20.23;;;8.70;99.90;;;;;;5066428;28;20648;-71
2024/02/28 07:55:50;;;;;;;24.70;20.50;;;8.50;99.90;;;;;;5065777;28;20202;-72
2024/02/28 07:58:16;;;;;;;25.20;20.87;;;8.40;99.90;;;;;;5065960;28;20182;-70
2024/02/28 08:00:43;;;;;;;27.20;23.00;;;8.60;99.90;;;;;;5065913;28;20190;-71
2024/02/28 08:03:09;;;;;;;26.47;21.53;;;8.50;99.90;;;;;;5065103;28;20753;-73
2024/02/28 08:05:38;;;;;;;30.97;23.00;;;8.50;99.90;;;;;;5046435;28;20447;-73
2024/02/28 08:08:05;;;;;;;25.57;21.60;;;8.80;99.90;;;;;;5064525;28;20183;-72
2024/02/28 08:10:31;;;;;;;24.17;20.97;;;8.90;99.90;;;;;;5064169;28;20409;-70
2024/02/28 08:12:57;;;;;;;26.33;21.87;;;8.90;99.90;;;;;;5064103;28;20506;-70
2024/02/28 08:15:23;;;;;;;25.87;21.00;;;8.70;99.90;;;;;;5063812;28;20704;-70
2024/02/28 08:17:48;;;;;;;25.97;22.97;;;8.70;99.90;;;;;;5064223;28;20421;-71
2024/02/28 08:20:14;;;;;;;25.70;21.77;;;8.80;99.90;;;;;;5065352;28;20266;-70
2024/02/28 08:22:40;;;;;;;30.70;24.70;;;8.80;99.90;;;;;;5065063;28;20191;-73
2024/02/28 08:25:06;;;;;;;28.30;23.90;;;8.70;99.90;;;;;;5065754;28;20241;-69
2024/02/28 08:27:34;;;;;;;25.90;22.13;;;8.80;99.90;;;;;;5065118;28;20183;-72
2024/02/28 08:29:59;;;;;;;29.07;22.33;;;8.70;99.90;;;;;;5065648;28;20187;-70
2024/02/28 08:32:25;;;;;;;28.83;24.37;;;8.40;99.90;;;;;;5064343;28;20452;-72
2024/02/28 08:34:50;;;;;;;24.97;22.00;;;8.30;99.90;;;;;;5065095;28;20216;-72
2024/02/28 08:37:17;;;;;;;31.03;23.70;;;8.60;99.90;;;;;;5064841;28;20533;-70
2024/02/28 08:39:42;;;;;;;33.40;23.70;;;8.80;99.90;;;;;;5065086;28;21505;-71
2024/02/28 08:42:08;;;;;;;28.20;24.50;;;9.10;99.90;;;;;;5063717;28;20410;-73
2024/02/28 08:44:34;;;;;;;28.40;22.50;;;9.00;99.90;;;;;;5064414;28;20202;-72
2024/02/28 08:46:59;;;;;;;27.80;23.33;;;8.70;99.90;;;;;;5064955;28;20269;-72
2024/02/28 08:49:24;;;;;;;31.73;25.80;;;8.60;99.90;;;;;;5064818;28;20209;-72
2024/02/28 08:51:50;;;;;;;28.10;22.70;;;8.80;99.90;;;;;;5064570;28;20199;-72
2024/02/28 08:54:16;;;;;;;26.67;21.00;;;8.80;99.90;;;;;;5064491;28;20195;-71
2024/02/28 08:56:41;;;;;;;31.03;24.60;;;8.60;99.90;;;;;;5064599;28;20198;-71
2024/02/28 08:59:07;;;;;;;27.20;22.70;;;8.70;99.90;;;;;;5064531;28;20171;-70
2024/02/28 09:01:34;;;;;;;27.40;22.50;;;8.80;99.90;;;;;;5064877;28;20222;-69
2024/02/28 09:04:00;;;;;;;28.73;23.90;;;8.60;99.90;;;;;;5064456;28;20195;-71
2024/02/28 09:06:25;;;;;;;24.57;21.27;;;8.40;99.90;;;;;;5064428;28;20428;-70
2024/02/28 09:08:51;;;;;;;30.13;22.40;;;8.40;99.90;;;;;;5064435;28;20430;-72
2024/02/28 09:11:16;;;;;;;25.23;21.30;;;8.50;99.90;;;;;;5046215;28;20231;-73
2024/02/28 09:13:42;;;;;;;26.77;21.67;;;8.70;99.90;;;;;;5046218;28;20179;-71
2024/02/28 09:16:07;;;;;;;27.90;21.53;;;8.80;99.90;;;;;;5064013;28;20188;-70
2024/02/28 09:18:33;;;;;;;24.90;19.90;;;8.80;99.90;;;;;;5064477;28;20255;-70
2024/02/28 09:20:59;;;;;;;22.73;19.77;;;8.60;99.90;;;;;;5064003;28;20554;-71
2024/02/28 09:23:24;;;;;;;28.60;22.90;;;8.70;99.90;;;;;;5064230;28;20187;-71
2024/02/28 09:25:50;;;;;;;25.40;21.00;;;8.80;99.90;;;;;;5063993;28;20198;-71
2024/02/28 09:28:16;;;;;;;27.30;20.20;;;9.00;99.90;;;;;;5064255;28;20171;-71
2024/02/28 09:30:42;;;;;;;25.33;19.83;;;9.20;99.90;;;;;;5063843;28;20190;-71
2024/02/28 09:33:08;;;;;;;26.50;20.93;;;9.30;99.90;;;;;;5045876;28;20646;-71
2024/02/28 09:35:35;;;;;;;26.77;20.97;;;9.20;99.90;;;;;;5064000;28;20956;-70
2024/02/28 09:38:02;;;;;;;28.87;21.73;;;9.30;99.90;;;;;;5063867;28;20415;-70
2024/02/28 09:40:27;;;;;;;23.23;19.73;;;9.50;99.90;;;;;;5064397;28;20542;-70
2024/02/28 09:43:00;;;;;;;27.57;20.93;;;9.30;99.90;;;;;;5063677;28;20677;-70
2024/02/28 09:45:26;;;;;;;26.27;21.00;;;8.90;99.90;;;;;;5063933;28;20197;-70
2024/02/28 09:47:52;;;;;;;26.20;20.97;;;8.70;99.90;;;;;;5063820;28;20425;-70
2024/02/28 09:50:19;;;;;;;29.03;22.33;;;8.60;99.90;;;;;;5063717;28;20417;-71
2024/02/28 09:52:45;;;;;;;23.90;20.37;;;8.50;99.90;;;;;;5063384;28;21003;-71
2024/02/28 09:55:10;;;;;;;27.30;21.70;;;8.50;99.90;;;;;;5063353;28;20424;-71
2024/02/28 09:57:37;;;;;;;23.00;20.30;;;8.80;99.90;;;;;;5063640;28;20445;-73
2024/02/28 10:00:04;;;;;;;24.50;20.83;;;9.00;99.90;;;;;;5062500;28;20418;-72
2024/02/28 10:02:31;;;;;;;24.10;19.93;;;9.60;99.90;;;;;;5063742;28;20559;-72
2024/02/28 10:05:00;;;;;;;26.20;20.33;;;9.40;99.90;;;;;;5063686;28;20428;-73
2024/02/28 10:07:27;;;;;;;23.53;19.47;;;8.70;99.90;;;;;;5063776;28;20432;-71
2024/02/28 10:09:52;;;;;;;19.40;17.27;;;8.40;99.90;;;;;;5063893;28;20417;-74
2024/02/28 10:12:20;;;;;;;24.10;17.23;;;8.40;99.90;;;;;;5063584;28;20481;-76
2024/02/28 10:14:48;;;;;;;18.60;14.90;;;8.60;99.90;;;;;;5063647;28;20424;-70
2024/02/28 10:17:14;;;;;;;22.93;17.23;;;9.00;99.90;;;;;;5063420;28;20742;-71
2024/02/28 10:19:39;;;;;;;19.30;16.83;;;9.10;99.90;;;;;;5063598;28;20422;-71
2024/02/28 10:22:06;;;;;;;20.03;16.80;;;9.30;99.90;;;;;;5062950;28;20194;-70
2024/02/28 10:24:33;;;;;;;22.50;17.33;;;9.60;99.90;;;;;;5045304;28;20203;-73
2024/02/28 10:27:01;;;;;;;17.70;15.23;;;9.80;99.90;;;;;;5063254;28;20906;-73
2024/02/28 10:29:32;;;;;;;18.57;16.50;;;9.60;99.90;;;;;;5063341;28;20498;-73
2024/02/28 10:32:02;;;;;;;21.70;17.73;;;9.60;99.90;;;;;;5062976;28;20457;-72
2024/02/28 10:34:29;;;;;;;24.67;17.23;;;9.70;99.90;;;;;;5062593;28;20542;-70
2024/02/28 10:36:56;;;;;;;20.57;17.13;;;9.80;99.90;;;;;;5044864;28;20417;-71
2024/02/28 10:39:23;;;;;;;19.13;15.80;;;10.00;99.90;;;;;;5063825;28;20422;-72
2024/02/28 10:41:52;;;;;;;21.63;18.23;;;10.10;99.90;;;;;;5063486;28;20430;-70
2024/02/28 10:44:20;;;;;;;21.50;16.03;;;10.00;99.90;;;;;;5063378;28;20456;-72
2024/02/28 10:46:49;;;;;;;19.80;17.10;;;10.20;99.90;;;;;;5063222;28;20797;-72
2024/02/28 10:49:14;;;;;;;20.20;17.37;;;10.30;99.90;;;;;;5063611;28;20469;-72
2024/02/28 10:51:45;;;;;;;22.10;17.50;;;10.40;99.90;;;;;;5063200;28;20554;-73
2024/02/28 10:54:12;;;;;;;19.97;16.40;;;10.50;99.90;;;;;;5063116;28;20262;-74
2024/02/28 10:56:41;;;;;;;19.90;16.10;;;10.50;99.90;;;;;;5066160;28;20554;-73
2024/02/28 10:59:08;;;;;;;21.93;17.93;;;10.60;99.90;;;;;;5067636;28;21160;-73
2024/02/28 11:01:36;;;;;;;20.83;17.33;;;10.40;99.90;;;;;;5069143;28;20423;-73
2024/02/28 11:04:03;;;;;;;20.20;16.60;;;9.90;99.90;;;;;;5067716;28;20447;-73
2024/02/28 11:06:29;;;;;;;19.17;16.40;;;9.60;99.90;;;;;;5067343;28;20417;-73
2024/02/28 11:08:56;;;;;;;21.00;17.80;;;9.60;99.90;;;;;;5067740;28;20476;-73
2024/02/28 11:11:22;;;;;;;20.13;16.77;;;9.50;99.90;;;;;;5067574;28;20212;-73
2024/02/28 11:14:00;;;;;;;21.80;19.10;;;9.50;99.90;;;;;;5066822;28;20413;-71
2024/02/28 11:16:36;;;;;;;21.83;17.67;;;9.70;99.90;;;;;;5068245;28;20496;-72
2024/02/28 11:19:03;;;;;;;21.20;16.93;;;9.80;99.90;;;;;;5067156;28;20436;-70
2024/02/28 11:21:29;;;;;;;23.80;19.13;;;9.80;99.90;;;;;;5066539;28;20469;-71
2024/02/28 11:24:01;;;;;;;19.40;16.73;;;9.30;99.90;;;;;;5067056;28;20950;-71
2024/02/28 11:26:27;;;;;;;24.40;19.70;;;9.10;99.90;;;;;;5066411;28;20178;-72
2024/02/28 11:28:56;;;;;;;24.37;19.77;;;9.10;99.90;;;;;;5067781;28;20488;-71
2024/02/28 11:31:22;;;;;;;24.43;18.40;;;9.40;99.90;;;;;;5066849;28;20462;-71
2024/02/28 11:33:47;;;;;;;20.30;17.23;;;9.70;99.90;;;;;;5066573;28;20526;-73
2024/02/28 11:36:13;;;;;;;19.43;17.33;;;9.90;99.90;;;;;;5066318;28;20460;-71
2024/02/28 11:38:40;;;;;;;20.63;17.53;;;9.50;99.90;;;;;;5067076;28;20272;-70
2024/02/28 11:41:06;;;;;;;19.10;15.63;;;9.70;99.90;;;;;;5066437;28;20402;-72
2024/02/28 11:43:35;;;;;;;21.73;18.27;;;10.00;99.90;;;;;;5066616;28;20930;-71
2024/02/28 11:46:01;;;;;;;20.37;18.03;;;10.20;99.90;;;;;;5066127;28;20464;-73
2024/02/28 11:48:30;;;;;;;22.70;18.50;;;10.10;99.90;;;;;;5066810;28;20407;-71
2024/02/28 11:50:58;;;;;;;25.57;19.40;;;9.60;99.90;;;;;;5066296;28;21290;-72
2024/02/28 11:53:26;;;;;;;22.20;18.30;;;9.20;99.90;;;;;;5066790;28;20462;-71
2024/02/28 11:55:52;;;;;;;24.23;19.67;;;8.90;99.90;;;;;;5065913;28;20406;-72
2024/02/28 11:58:18;;;;;;;24.93;20.97;;;9.00;99.90;;;;;;5066160;28;20237;-71
2024/02/28 12:00:48;;;;;;;26.40;21.88;;;8.90;99.90;;;;;;5065532;28;20414;-71
2024/02/28 12:03:13;;;;;;;29.03;22.30;;;9.30;99.90;;;;;;5065993;28;20181;-70
2024/02/28 12:05:43;;;;;;;27.60;20.77;;;9.30;99.90;;;;;;5066179;28;20646;-70
2024/02/28 12:08:09;;;;;;;28.45;21.90;;;9.30;99.90;;;;;;5065012;28;20414;-69
2024/02/28 12:10:35;;;;;;;25.40;21.75;;;9.40;99.90;;;;;;5065631;28;20402;-69
2024/02/28 12:13:01;;;;;;;25.37;21.13;;;9.80;99.90;;;;;;5065612;28;20207;-71
2024/02/28 12:15:31;;;;;;;24.60;18.90;;;9.80;99.90;;;;;;5065914;28;20436;-70
2024/02/28 12:17:58;;;;;;;22.87;20.20;;;9.60;99.90;;;;;;5066132;28;20408;-72
2024/02/28 12:20:23;;;;;;;25.93;19.93;;;9.50;99.90;;;;;;5065618;28;20408;-71
2024/02/28 12:22:49;;;;;;;29.80;20.43;;;9.20;99.90;;;;;;5065696;28;20423;-70
2024/02/28 12:25:15;;;;;;;23.57;21.07;;;9.10;99.90;;;;;;5046459;28;20500;-70
2024/02/28 12:27:40;;;;;;;24.07;19.80;;;9.30;99.90;;;;;;5065707;28;20183;-72
2024/02/28 12:30:07;;;;;;;25.57;19.70;;;9.10;99.90;;;;;;5065468;28;20221;-71
2024/02/28 12:32:32;;;;;;;25.40;20.03;;;9.10;99.90;;;;;;5065064;28;20201;-70